Time;durP1;ratioP1;P1;durP2;ratioP2;P2;SDS_P1;SDS_P2;PMS_P1;PMS_P2;Temp;Humidity;BMP_temperature;BMP_pressure;BME280_temperature;BME280_humidity;BME280_pressure;Samples;Min_cycle;Max_cycle;Signal;HPM_P1;HPM_P2
2022/08/07 00:00:27;;;;;;;1.52;0.70;;;;;;;14.22;62.71;99025.69;5044142;28;20085;-68
2022/08/07 00:02:55;;;;;;;4.20;1.00;;;;;;;14.19;63.59;99028.44;5044046;28;20025;-68
2022/08/07 00:05:22;;;;;;;2.97;1.10;;;;;;;14.04;64.55;99020.00;5044036;28;20032;-68
2022/08/07 00:07:47;;;;;;;6.75;0.90;;;;;;;14.01;65.01;99023.63;5044024;28;20276;-68
2022/08/07 00:10:13;;;;;;;2.72;0.85;;;;;;;13.72;66.41;99012.06;5043975;28;20025;-68
2022/08/07 00:12:38;;;;;;;1.83;0.82;;;;;;;13.69;66.01;99017.41;5045667;28;20026;-68
2022/08/07 00:15:04;;;;;;;1.50;0.90;;;;;;;13.67;66.75;99014.81;5063867;28;20083;-68
2022/08/07 00:17:30;;;;;;;2.67;1.02;;;;;;;13.55;67.19;99014.28;5063842;28;20324;-68
2022/08/07 00:19:55;;;;;;;2.80;1.25;;;;;;;13.59;65.63;99010.63;5063855;28;20025;-68
2022/08/07 00:22:20;;;;;;;2.22;1.00;;;;;;;13.73;64.14;99021.75;5063819;28;20020;-68
2022/08/07 00:24:46;;;;;;;2.38;0.80;;;;;;;13.74;64.82;99020.84;5063848;28;20025;-68
2022/08/07 00:27:11;;;;;;;4.82;1.25;;;;;;;13.78;64.69;99011.91;5063734;28;20048;-68
2022/08/07 00:29:36;;;;;;;1.58;0.95;;;;;;;13.91;63.73;99019.50;5063660;28;20206;-68
2022/08/07 00:32:03;;;;;;;1.23;0.82;;;;;;;13.73;64.70;99019.09;5063719;28;20021;-68
2022/08/07 00:34:29;;;;;;;6.53;1.00;;;;;;;13.77;64.59;99004.88;5063735;28;20096;-68
2022/08/07 00:36:55;;;;;;;4.72;0.93;;;;;;;13.84;64.01;99012.63;5066953;28;20032;-68
2022/08/07 00:39:20;;;;;;;2.55;1.17;;;;;;;13.78;65.54;99002.19;5067767;28;20024;-68
2022/08/07 00:41:54;;;;;;;2.08;0.90;;;;;;;13.93;63.71;99006.22;5067753;28;20101;-68
2022/08/07 00:44:20;;;;;;;2.22;0.82;;;;;;;14.19;61.78;99003.72;5067594;28;20119;-68
2022/08/07 00:46:45;;;;;;;3.65;0.93;;;;;;;14.51;60.74;99011.66;5049615;28;20029;-68
2022/08/07 00:49:10;;;;;;;2.35;0.68;;;;;;;14.45;61.31;99007.41;5047725;28;20021;-68
2022/08/07 00:51:36;;;;;;;6.82;1.00;;;;;;;14.34;61.52;99005.97;5047515;28;20021;-68
2022/08/07 00:54:02;;;;;;;1.05;0.68;;;;;;;14.27;61.85;99002.63;5047849;28;20036;-68
2022/08/07 00:56:28;;;;;;;2.72;0.80;;;;;;;14.24;62.14;98997.41;5047403;28;20260;-68
2022/08/07 00:58:54;;;;;;;4.07;0.98;;;;;;;14.31;62.17;99003.41;5047720;28;20022;-68
2022/08/07 01:01:20;;;;;;;2.58;0.90;;;;;;;14.28;62.16;99003.50;5047598;28;20044;-68
2022/08/07 01:03:46;;;;;;;1.67;0.85;;;;;;;14.36;61.43;99012.06;5047362;28;20034;-68
2022/08/07 01:06:11;;;;;;;2.97;0.90;;;;;;;14.37;61.59;99003.25;5047281;28;20028;-68
2022/08/07 01:08:38;;;;;;;3.13;0.93;;;;;;;14.34;61.79;99004.19;5047323;28;20205;-68
2022/08/07 01:11:04;;;;;;;4.05;0.85;;;;;;;14.25;62.42;99001.81;5047197;28;20052;-68
2022/08/07 01:13:29;;;;;;;2.55;0.90;;;;;;;14.22;62.12;98999.22;5047214;28;20045;-68
2022/08/07 01:15:57;;;;;;;1.70;0.70;;;;;;;14.14;62.71;98997.69;5047078;28;20021;-68
2022/08/07 01:18:22;;;;;;;4.53;0.93;;;;;;;14.09;63.43;98996.94;5047069;28;20029;-68
2022/08/07 01:20:53;;;;;;;2.13;0.90;;;;;;;14.03;63.92;98994.47;5047317;28;20336;-68
2022/08/07 01:23:19;;;;;;;0.93;0.73;;;;;;;13.96;63.79;98995.53;5047034;28;20041;-68
2022/08/07 01:25:45;;;;;;;4.53;0.80;;;;;;;14.08;62.50;99000.50;5047013;28;20026;-68
2022/08/07 01:28:10;;;;;;;3.63;1.05;;;;;;;14.04;63.49;98997.06;5046421;28;20091;-68
2022/08/07 01:30:37;;;;;;;7.78;0.88;;;;;;;14.09;63.15;98996.94;5045685;28;20021;-68
2022/08/07 01:33:02;;;;;;;2.55;0.90;;;;;;;14.16;62.37;98993.22;5045661;28;20067;-68
2022/08/07 01:35:28;;;;;;;3.95;0.90;;;;;;;13.99;64.15;98998.97;5052779;28;20033;-68
2022/08/07 01:37:53;;;;;;;0.75;0.55;;;;;;;14.25;62.22;98995.63;5055817;28;20033;-68
2022/08/07 01:40:21;;;;;;;8.63;1.23;;;;;;;14.32;61.73;98994.56;5045493;28;20032;-68
2022/08/07 01:42:47;;;;;;;1.10;0.70;;;;;;;14.40;61.60;98997.88;5045533;28;20045;-68
2022/08/07 01:45:13;;;;;;;1.73;0.90;;;;;;;14.44;60.82;98992.44;5045704;28;20014;-68
2022/08/07 01:47:39;;;;;;;2.00;0.60;;;;;;;14.44;61.09;99004.81;5046147;28;20036;-68
2022/08/07 01:50:05;;;;;;;2.33;1.08;;;;;;;14.35;61.54;98989.16;5045697;28;20309;-68
2022/08/07 01:52:33;;;;;;;5.35;0.88;;;;;;;14.35;61.42;98999.75;5045274;28;20328;-68
2022/08/07 01:55:01;;;;;;;1.75;0.73;;;;;;;14.30;61.57;99001.69;5045164;28;20033;-68
2022/08/07 01:57:28;;;;;;;5.50;1.30;;;;;;;14.44;61.28;98999.50;5045226;28;20032;-68
2022/08/07 02:00:02;;;;;;;2.17;0.93;;;;;;;14.45;61.33;98998.59;5045197;28;20021;-68
2022/08/07 02:02:43;;;;;;;5.07;0.90;;;;;;;14.25;62.12;98985.06;5045188;28;20092;-68
2022/08/07 02:05:15;;;;;;;0.90;0.70;;;;;;;14.27;61.68;98988.53;5045215;28;20025;-68
2022/08/07 02:07:52;;;;;;;2.22;1.13;;;;;;;14.34;61.71;98987.44;5045176;28;20032;-68
2022/08/07 02:10:22;;;;;;;1.45;0.85;;;;;;;14.36;61.47;98990.88;5045081;28;20030;-68
2022/08/07 02:12:49;;;;;;;1.95;0.82;;;;;;;14.26;61.99;98979.72;5045065;28;20017;-68
2022/08/07 02:15:19;;;;;;;1.50;0.73;;;;;;;14.32;61.97;98983.97;5044948;28;20084;-68
2022/08/07 02:17:47;;;;;;;1.67;0.85;;;;;;;14.30;61.83;98976.06;5044953;28;20037;-68
2022/08/07 02:20:15;;;;;;;1.38;0.85;;;;;;;14.25;61.87;98974.47;5050536;28;20023;-68
2022/08/07 02:22:41;;;;;;;2.85;0.93;;;;;;;14.13;62.60;98980.06;5064500;28;20376;-68
2022/08/07 02:25:08;;;;;;;3.28;0.80;;;;;;;13.97;63.89;98965.53;5060169;28;20048;-68
2022/08/07 02:27:35;;;;;;;2.10;0.70;;;;;;;13.98;63.25;98972.56;5006683;28;1090423;-68
2022/08/07 02:30:03;;;;;;;3.55;0.98;;;;;;;13.76;64.61;98956.38;5045776;28;20026;-68
2022/08/07 02:32:29;;;;;;;4.75;0.88;;;;;;;13.65;64.57;98957.59;5045770;28;20048;-68
2022/08/07 02:34:56;;;;;;;1.90;0.90;;;;;;;13.55;66.34;98956.09;5045624;28;20088;-68
2022/08/07 02:37:23;;;;;;;2.80;1.20;;;;;;;13.16;68.00;98942.09;5059045;28;20320;-68
2022/08/07 02:39:51;;;;;;;3.60;1.00;;;;;;;13.09;68.41;98948.44;5065559;28;20029;-68
2022/08/07 02:42:17;;;;;;;3.13;0.90;;;;;;;12.85;69.42;98941.94;5065508;28;20029;-68
2022/08/07 02:44:45;;;;;;;3.40;1.00;;;;;;;12.50;70.63;98939.22;5065458;28;20025;-68
2022/08/07 02:47:12;;;;;;;0.88;0.77;;;;;;;12.45;71.19;98941.13;5065418;28;20062;-68
2022/08/07 02:49:37;;;;;;;4.75;0.93;;;;;;;12.36;71.88;98943.94;5065400;28;20024;-68
2022/08/07 02:52:07;;;;;;;3.83;1.10;;;;;;;12.27;72.43;98933.59;5065451;28;20427;-69
2022/08/07 02:54:37;;;;;;;1.67;1.10;;;;;;;12.12;73.25;98931.25;5055552;28;20027;-69
2022/08/07 02:57:03;;;;;;;2.75;1.20;;;;;;;12.10;73.63;98938.38;5045356;28;20021;-69
2022/08/07 02:59:31;;;;;;;1.02;0.93;;;;;;;11.94;74.59;98929.03;5044675;28;20051;-69
2022/08/07 03:01:58;;;;;;;1.70;1.10;;;;;;;11.78;75.11;98919.69;5045177;28;20090;-69
2022/08/07 03:04:25;;;;;;;3.00;1.10;;;;;;;11.73;75.50;98918.88;5045107;28;20025;-69
2022/08/07 03:06:51;;;;;;;4.30;1.35;;;;;;;11.80;75.42;98925.75;5045008;28;20017;-69
2022/08/07 03:09:18;;;;;;;1.75;1.10;;;;;;;11.58;76.02;98916.50;5045017;28;20045;-69
2022/08/07 03:11:44;;;;;;;1.13;1.02;;;;;;;11.54;76.47;98920.09;5044947;28;20025;-69
2022/08/07 03:14:11;;;;;;;3.40;1.13;;;;;;;11.38;77.07;98917.75;5045195;28;20041;-69
2022/08/07 03:16:37;;;;;;;1.98;1.20;;;;;;;11.25;78.04;98922.38;5061607;28;20020;-69
2022/08/07 03:19:02;;;;;;;4.55;1.23;;;;;;;11.23;78.55;98913.63;5064740;28;20197;-69
2022/08/07 03:21:28;;;;;;;4.13;1.05;;;;;;;11.20;78.65;98918.94;5064749;28;20039;-69
2022/08/07 03:23:55;;;;;;;1.88;1.30;;;;;;;11.16;78.98;98924.28;5064686;28;20028;-69
2022/08/07 03:26:24;;;;;;;1.90;1.20;;;;;;;11.18;78.92;98922.53;5064677;28;20036;-69
2022/08/07 03:28:52;;;;;;;1.88;0.95;;;;;;;10.99;79.50;98929.88;5051110;28;20045;-69
2022/08/07 03:31:20;;;;;;;6.38;1.55;;;;;;;10.86;79.88;98926.53;5044589;28;20223;-69
2022/08/07 03:33:55;;;;;;;4.03;1.35;;;;;;;10.66;81.04;98922.47;5044591;28;20028;-69
2022/08/07 03:36:23;;;;;;;1.90;1.15;;;;;;;10.62;81.44;98923.44;5044468;28;20022;-69
2022/08/07 03:38:52;;;;;;;4.45;1.40;;;;;;;10.56;81.34;98928.78;5044542;28;20040;-69
2022/08/07 03:41:17;;;;;;;1.83;1.13;;;;;;;10.53;81.88;98924.44;5043284;28;20025;-69
2022/08/07 03:43:43;;;;;;;7.90;1.70;;;;;;;10.53;81.80;98928.81;5044419;28;20048;-69
2022/08/07 03:46:10;;;;;;;2.30;1.40;;;;;;;10.50;81.85;98934.13;5044331;28;20051;-69
2022/08/07 03:48:36;;;;;;;2.65;1.20;;;;;;;10.47;82.20;98936.78;5044359;28;20032;-69
2022/08/07 03:51:02;;;;;;;1.42;1.13;;;;;;;10.46;82.08;98935.06;5044300;28;20272;-69
2022/08/07 03:53:28;;;;;;;2.40;1.40;;;;;;;10.24;82.86;98931.88;5044250;28;20092;-69
2022/08/07 03:55:55;;;;;;;2.83;1.40;;;;;;;10.19;83.75;98932.84;5044148;28;20052;-69
2022/08/07 03:58:23;;;;;;;5.10;1.23;;;;;;;9.98;84.81;98928.69;5044234;28;20031;-69
2022/08/07 04:00:51;;;;;;;3.20;1.35;;;;;;;10.01;84.43;98938.28;5044109;28;20027;-69
2022/08/07 04:03:17;;;;;;;1.45;1.35;;;;;;;9.93;85.22;98934.84;5061432;28;20031;-69
2022/08/07 04:05:42;;;;;;;4.78;1.83;;;;;;;9.86;85.40;98943.72;5054201;28;20029;-69
2022/08/07 04:08:10;;;;;;;4.40;1.40;;;;;;;9.88;85.23;98934.94;5044108;28;20025;-69
2022/08/07 04:10:36;;;;;;;2.60;1.73;;;;;;;9.89;85.39;98936.66;5043882;28;20021;-69
2022/08/07 04:13:02;;;;;;;3.38;1.55;;;;;;;9.93;85.46;98940.13;5044004;28;20036;-69
2022/08/07 04:15:28;;;;;;;2.67;1.33;;;;;;;10.02;85.48;98942.63;5043862;28;20021;-69
2022/08/07 04:17:53;;;;;;;6.57;1.63;;;;;;;9.98;85.21;98948.84;5043966;28;20027;-69
2022/08/07 04:20:19;;;;;;;1.65;1.20;;;;;;;10.02;85.04;98947.91;5043989;28;20029;-69
2022/08/07 04:22:45;;;;;;;4.60;1.42;;;;;;;10.03;84.75;98947.03;5043945;28;20052;-69
2022/08/07 04:25:11;;;;;;;3.75;1.33;;;;;;;10.01;84.79;98948.78;5044140;28;20017;-69
2022/08/07 04:27:37;;;;;;;2.42;1.30;;;;;;;9.93;85.32;98951.50;5043622;28;20021;-69
2022/08/07 04:30:03;;;;;;;2.28;1.38;;;;;;;10.00;85.43;98955.81;5043840;28;20048;-69
2022/08/07 04:32:29;;;;;;;1.80;1.23;;;;;;;10.07;85.51;98961.91;5043834;28;20084;-69
2022/08/07 04:34:55;;;;;;;2.70;1.52;;;;;;;10.02;85.12;98961.03;5043733;28;20121;-69
2022/08/07 04:37:20;;;;;;;4.03;1.55;;;;;;;10.06;84.70;98962.78;5062768;28;20340;-69
2022/08/07 04:39:46;;;;;;;2.40;1.20;;;;;;;9.90;84.70;98961.22;5063654;28;20029;-69
2022/08/07 04:42:11;;;;;;;2.85;1.67;;;;;;;9.93;85.66;98966.41;5063922;28;20062;-69
2022/08/07 04:44:37;;;;;;;3.60;1.48;;;;;;;9.93;85.75;98971.66;5063710;28;20021;-69
2022/08/07 04:47:18;;;;;;;9.07;1.73;;;;;;;9.85;86.02;98969.16;5063856;28;20020;-69
2022/08/07 04:50:04;;;;;;;4.53;1.40;;;;;;;9.84;85.88;98966.53;5063628;28;20021;-69
2022/08/07 04:52:49;;;;;;;6.00;1.75;;;;;;;9.81;86.08;98963.94;5063565;28;20036;-69
2022/08/07 04:55:49;;;;;;;3.72;1.60;;;;;;;9.80;85.88;98975.31;5044040;28;20222;-69
2022/08/07 04:58:42;;;;;;;3.65;1.60;;;;;;;10.10;85.81;98985.53;5043592;28;20093;-69
2022/08/07 05:01:20;;;;;;;2.50;1.58;;;;;;;10.48;83.18;98976.25;5043502;28;20021;-69
2022/08/07 05:03:56;;;;;;;3.17;1.48;;;;;;;10.24;84.29;98978.34;5043577;28;20025;-69
2022/08/07 05:06:44;;;;;;;3.42;1.48;;;;;;;10.13;85.09;98969.72;5043762;28;20021;-69
2022/08/07 05:09:21;;;;;;;2.83;1.52;;;;;;;10.22;85.66;98981.00;5044862;28;20060;-69
2022/08/07 05:11:50;;;;;;;1.65;1.33;;;;;;;10.74;84.70;98996.97;5063397;28;20021;-69
2022/08/07 05:14:26;;;;;;;2.50;1.58;;;;;;;12.20;80.14;99013.78;5063352;28;20024;-69
2022/08/07 05:16:55;;;;;;;2.83;1.60;;;;;;;13.50;73.75;99016.16;5062104;28;20217;-69
2022/08/07 05:19:24;;;;;;;6.45;2.33;;;;;;;14.51;70.11;99023.13;5062370;28;20013;-69
2022/08/07 05:21:54;;;;;;;8.77;1.30;;;;;;;14.87;68.11;99015.84;5063675;28;20032;-69
2022/08/07 05:24:22;;;;;;;2.58;1.30;;;;;;;15.72;65.78;99029.94;5066053;28;20059;-69
2022/08/07 05:26:54;;;;;;;6.53;1.27;;;;;;;16.62;62.77;99032.91;5065908;28;20017;-69
2022/08/07 05:29:21;;;;;;;4.72;1.30;;;;;;;17.30;60.93;99032.88;5065399;28;20048;-69
2022/08/07 05:31:48;;;;;;;2.53;1.30;;;;;;;17.91;59.29;99036.63;5055152;28;20031;-69
2022/08/07 05:34:15;;;;;;;2.22;1.20;;;;;;;18.44;57.54;99032.50;5045882;28;20025;-69
2022/08/07 05:36:43;;;;;;;2.85;0.80;;;;;;;18.87;55.99;99037.63;5045798;28;20213;-69
2022/08/07 05:39:10;;;;;;;4.10;1.00;;;;;;;19.64;53.69;99048.16;5045817;28;20029;-69
2022/08/07 05:41:38;;;;;;;2.42;0.90;;;;;;;19.62;50.93;99023.34;5045752;28;20025;-69
2022/08/07 05:44:04;;;;;;;3.03;0.68;;;;;;;20.25;51.72;99051.31;5055625;28;20325;-69
2022/08/07 05:46:29;;;;;;;1.98;0.88;;;;;;;20.79;50.50;99054.63;5065672;28;20132;-69
2022/08/07 05:48:56;;;;;;;2.67;0.88;;;;;;;21.54;49.05;99054.06;5065546;28;20047;-69
2022/08/07 05:51:23;;;;;;;2.95;0.77;;;;;;;21.70;46.57;99036.16;5057557;28;20096;-69
2022/08/07 05:53:48;;;;;;;0.82;0.60;;;;;;;21.78;45.40;99031.22;5045813;28;20021;-69
2022/08/07 05:56:16;;;;;;;4.15;0.90;;;;;;;21.97;45.88;99037.25;5044939;28;20032;-69
2022/08/07 05:58:45;;;;;;;4.97;0.80;;;;;;;22.67;45.37;99053.56;5045500;28;20033;-69
2022/08/07 06:01:13;;;;;;;3.53;1.10;;;;;;;22.84;43.25;99045.31;5045918;28;20029;-69
2022/08/07 06:03:42;;;;;;;0.63;0.52;;;;;;;24.07;44.04;99060.59;5045623;28;20197;-69
2022/08/07 06:06:09;;;;;;;2.88;0.90;;;;;;;23.60;41.40;99034.13;5045888;28;20223;-70
2022/08/07 06:08:35;;;;;;;1.75;0.70;;;;;;;23.63;42.62;99044.66;5044900;28;20048;-70
2022/08/07 06:11:01;;;;;;;1.45;0.75;;;;;;;24.52;41.65;99074.47;5045246;28;20025;-70
2022/08/07 06:13:26;;;;;;;3.58;0.80;;;;;;;25.11;39.51;99068.50;5060724;28;20035;-70
2022/08/07 06:15:54;;;;;;;1.38;0.57;;;;;;;25.09;39.97;99059.66;5065328;28;20215;-70
2022/08/07 06:18:21;;;;;;;2.95;0.90;;;;;;;25.30;38.61;99068.91;5051246;28;20352;-70
2022/08/07 06:20:47;;;;;;;7.18;1.20;;;;;;;26.12;37.94;99070.94;5045330;28;20077;-70
2022/08/07 06:23:12;;;;;;;2.58;0.70;;;;;;;24.92;38.63;99046.53;5044616;28;20025;-70
2022/08/07 06:25:40;;;;;;;3.75;0.75;;;;;;;24.61;39.63;99046.03;5044975;28;20052;-70
2022/08/07 06:28:07;;;;;;;2.85;0.70;;;;;;;25.37;38.29;99060.41;5044676;28;20049;-70
2022/08/07 06:30:34;;;;;;;1.42;0.70;;;;;;;25.94;37.17;99056.13;5044900;28;20067;-70
2022/08/07 06:33:00;;;;;;;1.98;0.80;;;;;;;26.40;37.12;99067.88;5044066;28;20021;-70
2022/08/07 06:35:26;;;;;;;1.58;0.80;;;;;;;26.52;37.02;99061.53;5063960;28;20036;-70
2022/08/07 06:37:51;;;;;;;1.27;0.65;;;;;;;26.44;36.15;99047.75;5064682;28;20029;-70
2022/08/07 06:40:17;;;;;;;5.10;0.90;;;;;;;26.66;35.49;99053.25;5064653;28;20354;-70
2022/08/07 06:42:46;;;;;;;3.00;0.85;;;;;;;26.91;35.53;99058.47;5064280;28;20025;-70
2022/08/07 06:45:17;;;;;;;2.05;0.70;;;;;;;27.43;35.26;99056.06;5064540;28;20024;-70
2022/08/07 06:47:43;;;;;;;5.07;0.80;;;;;;;27.26;35.61;99056.53;5064104;28;20028;-70
2022/08/07 06:50:10;;;;;;;2.30;0.85;;;;;;;27.31;34.72;99062.47;5064724;28;20455;-70
2022/08/07 06:52:40;;;;;;;1.45;0.90;;;;;;;26.32;35.79;99032.53;5062758;28;20036;-70
2022/08/07 06:55:14;;;;;;;1.63;1.13;;;;;;;27.78;35.48;99072.97;5064731;28;20028;-70
2022/08/07 06:57:42;;;;;;;2.67;0.70;;;;;;;27.73;34.44;99058.97;5065337;28;20024;-70
2022/08/07 07:00:08;;;;;;;12.65;1.23;;;;;;;28.18;33.84;99073.25;5065180;28;20379;-69
2022/08/07 07:02:35;;;;;;;1.55;0.93;;;;;;;28.94;32.88;99077.44;5065119;28;20040;-70
2022/08/07 07:05:01;;;;;;;2.47;0.95;;;;;;;29.03;32.51;99063.13;5065092;28;20059;-70
2022/08/07 07:07:27;;;;;;;4.18;0.93;;;;;;;29.09;31.89;99065.31;5065004;28;20021;-71
2022/08/07 07:09:52;;;;;;;5.53;1.05;;;;;;;28.31;33.50;99053.13;5065032;28;20024;-71
2022/08/07 07:12:47;;;;;;;3.53;1.10;;;;;;;28.70;33.23;99066.00;5064918;28;20025;-70
2022/08/07 07:15:27;;;;;;;3.42;1.20;;;;;;;28.18;33.22;99055.16;5065051;28;20239;-70
2022/08/07 07:18:12;;;;;;;2.95;1.00;;;;;;;28.27;33.73;99054.38;5064891;28;20067;-70
2022/08/07 07:20:44;;;;;;;4.05;1.13;;;;;;;28.72;32.98;99052.31;5064794;28;20028;-70
2022/08/07 07:23:10;;;;;;;2.40;1.00;;;;;;;28.71;33.24;99048.78;5061066;28;20070;-70
2022/08/07 07:25:38;;;;;;;1.77;0.73;;;;;;;29.43;33.08;99059.59;5047524;28;20051;-70
2022/08/07 07:28:13;;;;;;;3.97;1.02;;;;;;;29.21;32.22;99053.34;5044677;28;20333;-70
2022/08/07 07:30:44;;;;;;;2.67;1.33;;;;;;;29.62;32.76;99040.69;5044670;28;20210;-70
2022/08/07 07:33:12;;;;;;;;;;;;;;;29.27;32.91;99035.69;5045031;28;20240;-70
2022/08/07 07:35:41;;;;;;;2.38;1.17;;;;;;;29.34;32.67;99046.84;5048377;28;19919;-70
2022/08/07 07:38:07;;;;;;;4.75;1.10;;;;;;;29.33;33.18;99045.13;5063914;28;20024;-70
2022/08/07 07:40:34;;;;;;;4.53;1.25;;;;;;;30.21;32.16;99060.56;5063645;28;20324;-70
2022/08/07 07:43:04;;;;;;;10.65;1.02;;;;;;;29.65;32.46;99046.72;5058799;28;20028;-70
2022/08/07 07:45:30;;;;;;;3.65;1.17;;;;;;;29.38;33.02;99030.16;5044146;28;20037;-70
2022/08/07 07:47:57;;;;;;;3.17;1.17;;;;;;;30.33;32.11;99043.09;5044403;28;20021;-70
2022/08/07 07:50:24;;;;;;;2.50;0.98;;;;;;;30.96;30.95;99046.06;5044433;28;20025;-70
2022/08/07 07:52:51;;;;;;;5.32;1.48;;;;;;;29.47;32.45;99010.34;5045462;28;20049;-70
2022/08/07 07:55:19;;;;;;;2.10;1.33;;;;;;;30.34;32.54;99031.25;5042658;28;20229;-70
2022/08/07 07:57:48;;;;;;;3.63;1.45;;;;;;;30.35;32.68;99024.81;5043969;28;20090;-70
2022/08/07 08:00:15;;;;;;;3.53;1.38;;;;;;;30.84;32.21;99025.50;5044255;28;20025;-70
2022/08/07 08:02:41;;;;;;;3.10;1.38;;;;;;;30.74;32.06;99026.50;5050711;28;20044;-70
2022/08/07 08:05:08;;;;;;;2.83;1.40;;;;;;;30.73;31.92;99022.09;5063304;28;20071;-70
2022/08/07 08:07:35;;;;;;;5.65;1.60;;;;;;;31.03;31.88;99021.84;5063520;28;20258;-70
2022/08/07 08:10:03;;;;;;;5.78;1.42;;;;;;;30.98;32.39;99025.00;5063261;28;20021;-70
2022/08/07 08:12:30;;;;;;;3.15;1.70;;;;;;;30.83;32.39;99014.75;5048516;28;20056;-70
2022/08/07 08:14:55;;;;;;;7.10;1.90;;;;;;;31.01;32.77;99013.00;5060190;28;20035;-70
2022/08/07 08:17:22;;;;;;;3.20;1.50;;;;;;;31.85;32.85;99031.81;5063183;28;20028;-70
2022/08/07 08:19:51;;;;;;;2.10;1.02;;;;;;;32.16;31.62;99024.16;5044017;28;20329;-70
2022/08/07 08:27:51;;;;;;;7.55;2.35;;;;;;;31.52;32.00;99002.50;5063070;28;20362;-70
2022/08/07 08:30:16;;;;;;;5.30;1.90;;;;;;;30.87;34.09;99005.28;5062996;28;20031;-70
2022/08/07 08:32:52;;;;;;;4.85;2.17;;;;;;;31.30;32.60;99010.19;5049880;28;20033;-70
2022/08/07 08:35:21;;;;;;;4.10;2.05;;;;;;;31.32;33.80;99005.47;5043733;28;20026;-70
2022/08/07 08:37:47;;;;;;;5.47;1.90;;;;;;;31.70;33.99;99016.97;5043657;28;20045;-69
2022/08/07 08:40:25;;;;;;;4.13;2.08;;;;;;;31.56;34.15;98993.00;5043802;28;20025;-68
2022/08/07 08:42:58;;;;;;;6.75;2.25;;;;;;;32.07;33.32;99009.59;5052807;28;20025;-69
2022/08/07 08:45:49;;;;;;;7.47;2.10;;;;;;;31.51;34.88;99005.38;5062212;28;20032;-70
2022/08/07 08:48:43;;;;;;;4.00;2.00;;;;;;;32.46;33.42;99016.44;5055352;28;20029;-69
2022/08/07 08:51:32;;;;;;;3.42;1.90;;;;;;;31.27;33.46;98983.25;5054035;28;20029;-70
2022/08/07 08:54:09;;;;;;;3.67;2.20;;;;;;;30.55;34.46;98977.59;5061887;28;20025;-70
2022/08/07 08:56:37;;;;;;;4.40;2.20;;;;;;;30.93;34.84;98993.84;5064467;28;20135;-70
2022/08/07 08:59:35;;;;;;;6.03;2.60;;;;;;;30.91;34.67;98979.56;5067504;28;20047;-70
2022/08/07 09:02:30;;;;;;;2.67;1.92;;;;;;;31.21;33.56;98979.28;5067678;28;20336;-70
2022/08/07 09:05:30;;;;;;;3.22;2.25;;;;;;;31.13;34.33;98990.06;5067404;28;20224;-70
2022/08/07 09:08:14;;;;;;;13.60;2.88;;;;;;;31.02;34.33;98985.66;5061563;28;20035;-70
2022/08/07 09:10:57;;;;;;;3.65;2.33;;;;;;;31.26;33.80;98974.25;5067342;28;20209;-69
2022/08/07 09:13:57;;;;;;;3.42;2.00;;;;;;;32.04;33.02;98988.13;5059402;28;20032;-70
2022/08/07 09:16:53;;;;;;;7.45;1.88;;;;;;;31.80;33.04;98976.97;5050469;28;20021;-70
2022/08/07 09:19:47;;;;;;;7.05;2.40;;;;;;;29.47;36.30;98958.81;5047102;28;20202;-70
2022/08/07 09:22:46;;;;;;;3.40;1.95;;;;;;;30.94;34.61;98984.69;5046715;28;20364;-70
2022/08/07 09:25:20;;;;;;;6.25;2.30;;;;;;;31.26;32.68;98985.13;5047001;28;20045;-70
2022/08/07 09:28:05;;;;;;;2.83;1.90;;;;;;;30.86;33.24;98965.53;5046781;28;20025;-70
2022/08/07 09:30:49;;;;;;;3.97;2.20;;;;;;;31.03;33.27;98956.59;5046860;28;20021;-70
2022/08/07 09:33:42;;;;;;;3.92;2.30;;;;;;;30.40;34.41;98951.91;5046907;28;20032;-70
2022/08/07 09:36:19;;;;;;;4.00;2.00;;;;;;;31.01;33.86;98974.94;5046703;28;20059;-70
2022/08/07 09:39:43;;;;;;;3.90;2.03;;;;;;;30.55;33.45;98964.00;5046836;28;20321;-70
2022/08/07 09:42:27;;;;;;;4.32;2.00;;;;;;;30.40;33.83;98951.91;5044937;28;20052;-70
2022/08/07 09:45:24;;;;;;;9.10;2.35;;;;;;;30.42;32.77;98949.88;5045015;28;20025;-70
2022/08/07 09:48:08;;;;;;;3.88;1.85;;;;;;;29.71;32.96;98943.06;5015020;28;20045;-70
2022/08/07 09:50:58;;;;;;;4.10;1.60;;;;;;;30.50;33.28;98967.16;5046555;28;20140;-70
2022/08/07 09:53:26;;;;;;;4.57;2.47;;;;;;;29.73;33.37;98945.63;5046563;28;20329;-70
2022/08/07 09:56:20;;;;;;;4.95;1.90;;;;;;;29.90;33.63;98937.63;5046666;28;20321;-70
2022/08/07 09:59:06;;;;;;;7.05;2.05;;;;;;;30.82;32.69;98947.81;5046390;28;20128;-70
2022/08/07 10:01:53;;;;;;;4.03;2.00;;;;;;;30.71;32.48;98934.34;5046363;28;20325;-70
2022/08/07 10:04:56;;;;;;;5.50;1.95;;;;;;;30.32;31.78;98919.16;5046371;28;20025;-70
2022/08/07 10:07:41;;;;;;;3.58;1.70;;;;;;;29.37;32.22;98916.38;5046245;28;20029;-70
2022/08/07 10:10:18;;;;;;;2.22;1.67;;;;;;;28.76;33.11;98899.34;5046225;28;20021;-70
2022/08/07 10:13:37;;;;;;;7.88;1.95;;;;;;;29.30;32.89;98920.66;5046412;28;20029;-70
2022/08/07 10:16:29;;;;;;;3.53;1.88;;;;;;;29.18;33.32;98912.66;5044290;28;20060;-70
2022/08/07 10:18:57;;;;;;;5.55;1.80;;;;;;;29.30;33.05;98909.81;5044299;28;20244;-70
2022/08/07 10:21:39;;;;;;;3.28;1.88;;;;;;;30.17;32.57;98920.56;5045289;28;20060;-70
2022/08/07 10:24:27;;;;;;;8.82;2.08;;;;;;;30.04;32.83;98911.88;5045998;28;20025;-70
2022/08/07 10:27:27;;;;;;;3.03;2.10;;;;;;;30.89;32.05;98940.78;5045916;28;20096;-70
2022/08/07 10:30:05;;;;;;;1.90;1.40;;;;;;;30.16;31.28;98906.16;5045696;28;20057;-70
2022/08/07 10:32:58;;;;;;;7.25;1.70;;;;;;;30.38;31.64;98899.56;5045810;28;20135;-70
2022/08/07 10:35:52;;;;;;;6.50;1.55;;;;;;;30.10;29.83;98900.44;5045693;28;20033;-70
2022/08/07 10:38:23;;;;;;;3.45;1.40;;;;;;;30.59;29.68;98913.81;5045641;28;20029;-70
2022/08/07 10:41:11;;;;;;;4.10;1.45;;;;;;;30.57;29.68;98913.09;5045781;28;20025;-70
2022/08/07 10:43:53;;;;;;;2.55;1.40;;;;;;;30.32;28.61;98911.88;5045571;28;20033;-70
2022/08/07 10:46:24;;;;;;;2.05;1.13;;;;;;;29.24;28.26;98884.97;5045613;28;20090;-70
2022/08/07 10:48:52;;;;;;;4.90;1.33;;;;;;;29.58;29.62;98895.44;5045500;28;20396;-70
2022/08/07 10:51:30;;;;;;;7.72;1.95;;;;;;;29.06;31.38;98897.50;5045429;28;20028;-70
2022/08/07 10:54:27;;;;;;;3.03;1.63;;;;;;;28.91;30.60;98884.41;5045349;28;20321;-70
2022/08/07 10:57:12;;;;;;;4.95;1.20;;;;;;;29.03;30.01;98883.31;5045245;28;20033;-70
2022/08/07 11:00:00;;;;;;;2.25;1.33;;;;;;;29.58;30.17;98895.44;5045181;28;20079;-70
2022/08/07 11:02:31;;;;;;;2.97;1.52;;;;;;;29.66;29.32;98901.91;5044980;28;20033;-70
2022/08/07 11:04:57;;;;;;;;;;;;;;;29.54;30.84;98891.31;5045549;28;20029;-70
2022/08/07 11:07:28;;;;;;;5.70;1.77;;;;;;;29.36;31.89;98876.72;5045059;28;19944;-70
2022/08/07 11:09:58;;;;;;;2.63;1.67;;;;;;;29.60;32.73;98880.72;5045122;28;20013;-70
2022/08/07 11:12:50;;;;;;;3.30;1.50;;;;;;;29.60;30.16;98890.72;5045021;28;20032;-70
2022/08/07 11:15:28;;;;;;;8.90;1.80;;;;;;;28.85;30.33;98866.84;5044838;28;20055;-70
2022/08/07 11:18:04;;;;;;;5.65;1.38;;;;;;;29.51;30.29;98880.75;5045157;28;20202;-70
2022/08/07 11:20:57;;;;;;;4.18;1.42;;;;;;;28.90;30.24;98859.19;5044208;28;20067;-70
2022/08/07 11:23:36;;;;;;;5.22;1.55;;;;;;;28.69;31.07;98842.13;5044857;28;20040;-70
2022/08/07 11:26:12;;;;;;;3.10;1.50;;;;;;;28.73;31.69;98857.13;5044764;28;20021;-70
2022/08/07 11:29:02;;;;;;;4.25;1.40;;;;;;;28.92;31.42;98862.59;5044510;28;20041;-70
2022/08/07 11:31:33;;;;;;;2.95;1.70;;;;;;;28.70;32.28;98851.97;5044712;28;20048;-70
2022/08/07 11:34:10;;;;;;;4.38;1.75;;;;;;;28.38;32.47;98844.97;5044643;28;20025;-70
2022/08/07 11:36:44;;;;;;;3.03;1.50;;;;;;;28.53;32.79;98843.63;5044497;28;20089;-70
2022/08/07 11:39:38;;;;;;;2.60;1.40;;;;;;;28.27;32.58;98834.22;5044536;28;20321;-70
2022/08/07 11:42:28;;;;;;;2.72;1.38;;;;;;;27.90;32.98;98824.91;5044685;28;20043;-70
2022/08/07 11:45:04;;;;;;;5.30;1.65;;;;;;;27.97;31.98;98840.44;5044477;28;20021;-70
2022/08/07 11:47:47;;;;;;;3.72;2.10;;;;;;;27.37;32.92;98824.06;5044469;28;20092;-70
2022/08/07 11:50:33;;;;;;;5.03;1.35;;;;;;;27.29;33.83;98831.94;5044637;28;20048;-70
2022/08/07 11:53:34;;;;;;;2.58;1.50;;;;;;;27.22;33.56;98825.28;5044351;28;20420;-70
2022/08/07 11:56:38;;;;;;;3.08;1.50;;;;;;;26.99;32.95;98818.25;5043461;28;20033;-70
2022/08/07 11:59:26;;;;;;;2.67;1.70;;;;;;;26.96;33.53;98829.31;5043683;28;20096;-70
2022/08/07 12:02:12;;;;;;;4.72;1.42;;;;;;;26.97;33.10;98825.63;5044291;28;20025;-70
2022/08/07 12:05:11;;;;;;;1.80;1.17;;;;;;;26.74;33.76;98808.59;5044153;28;20029;-70